Time;durP1;ratioP1;P1;durP2;ratioP2;P2;SDS_P1;SDS_P2;PMS_P1;PMS_P2;Temp;Humidity;BMP_temperature;BMP_pressure;BME280_temperature;BME280_humidity;BME280_pressure;Samples;Min_cycle;Max_cycle;Signal;HPM_P1;HPM_P2
2023/07/05 00:01:28;;;;;;;12.85;4.45;;;15.20;99.90;;;;;;4998525;28;20088;-72
2023/07/05 00:03:54;;;;;;;15.13;4.50;;;15.20;99.90;;;;;;5017041;28;20132;-71
2023/07/05 00:06:20;;;;;;;11.88;5.47;;;15.10;99.90;;;;;;5001553;28;20117;-71
2023/07/05 00:08:45;;;;;;;14.20;4.25;;;15.10;99.90;;;;;;5017226;28;20060;-73
2023/07/05 00:11:11;;;;;;;13.23;4.50;;;15.10;99.90;;;;;;5015051;28;20486;-72
2023/07/05 00:13:37;;;;;;;11.55;4.85;;;15.10;99.90;;;;;;4998196;28;20030;-72
2023/07/05 00:16:03;;;;;;;12.23;4.75;;;15.10;99.90;;;;;;5018229;28;20044;-72
2023/07/05 00:18:29;;;;;;;10.48;4.15;;;15.20;99.90;;;;;;4998224;28;20041;-72
2023/07/05 00:21:03;;;;;;;17.20;4.70;;;15.20;99.90;;;;;;5017204;28;20055;-73
2023/07/05 00:23:30;;;;;;;12.57;5.32;;;15.20;99.90;;;;;;5018879;28;20041;-72
2023/07/05 00:25:55;;;;;;;12.00;4.50;;;15.20;99.90;;;;;;4997682;28;20490;-72
2023/07/05 00:28:21;;;;;;;12.98;5.18;;;15.20;99.90;;;;;;4997869;28;20017;-72
2023/07/05 00:30:46;;;;;;;12.18;4.90;;;15.20;99.90;;;;;;4999176;28;20565;-72
2023/07/05 00:33:12;;;;;;;10.35;4.70;;;15.30;99.90;;;;;;5021764;28;20041;-72
2023/07/05 00:35:47;;;;;;;13.23;4.40;;;15.30;99.90;;;;;;5004974;28;20033;-72
2023/07/05 00:38:12;;;;;;;10.57;4.60;;;15.30;99.90;;;;;;5019530;28;20191;-73
2023/07/05 00:40:38;;;;;;;11.68;4.35;;;15.30;99.90;;;;;;4998522;28;20515;-72
2023/07/05 00:43:03;;;;;;;7.88;4.10;;;15.30;99.90;;;;;;5000082;28;20760;-72
2023/07/05 00:45:51;;;;;;;9.32;4.15;;;15.30;99.90;;;;;;5014842;28;20030;-72
2023/07/05 00:48:23;;;;;;;14.90;3.78;;;15.40;99.90;;;;;;4962271;28;20099;-72
2023/07/05 00:50:52;;;;;;;9.15;3.60;;;15.40;99.90;;;;;;5015452;28;20029;-72
2023/07/05 00:53:19;;;;;;;10.68;3.45;;;15.40;99.90;;;;;;5004805;28;20029;-72
2023/07/05 00:55:52;;;;;;;8.18;3.45;;;15.50;99.90;;;;;;4999120;28;20418;-73
2023/07/05 00:58:19;;;;;;;9.13;3.97;;;15.50;99.90;;;;;;5010481;28;20398;-71
2023/07/05 01:00:45;;;;;;;8.25;3.22;;;15.50;99.90;;;;;;5022525;28;20030;-72
2023/07/05 01:03:13;;;;;;;7.15;3.08;;;15.50;99.90;;;;;;5001786;28;20045;-72
2023/07/05 01:05:39;;;;;;;8.30;3.53;;;15.60;99.90;;;;;;5021790;28;20029;-71
2023/07/05 01:08:05;;;;;;;10.38;3.70;;;15.50;99.90;;;;;;5000422;28;20068;-72
2023/07/05 01:10:31;;;;;;;7.13;2.70;;;15.60;99.90;;;;;;5022837;28;20026;-71
2023/07/05 01:13:00;;;;;;;7.80;3.40;;;15.60;99.90;;;;;;5017253;28;20537;-71
2023/07/05 01:15:39;;;;;;;6.95;2.50;;;15.60;99.90;;;;;;5019192;28;20038;-72
2023/07/05 01:18:31;;;;;;;5.32;2.00;;;15.60;99.90;;;;;;5017856;28;20417;-71
2023/07/05 01:21:14;;;;;;;4.18;1.90;;;15.60;99.90;;;;;;5021178;28;20057;-71
2023/07/05 01:23:42;;;;;;;8.98;2.30;;;15.60;99.90;;;;;;5005671;28;20034;-71
2023/07/05 01:26:43;;;;;;;5.20;2.17;;;15.70;99.90;;;;;;5020024;28;20032;-71
2023/07/05 01:29:08;;;;;;;;;;;15.70;99.90;;;;;;4986703;28;20129;-71
2023/07/05 01:31:34;;;;;;;4.82;1.85;;;15.70;99.90;;;;;;5001182;28;20024;-71
2023/07/05 01:34:10;;;;;;;4.47;2.15;;;15.70;99.90;;;;;;5015001;28;20037;-73
2023/07/05 01:36:37;;;;;;;5.75;1.77;;;15.70;99.90;;;;;;5005617;28;20048;-71
2023/07/05 01:39:03;;;;;;;6.78;2.30;;;15.70;99.90;;;;;;5020869;28;20053;-71
2023/07/05 01:41:28;;;;;;;7.10;1.83;;;15.70;99.90;;;;;;5001492;28;20495;-71
2023/07/05 01:43:54;;;;;;;5.05;2.25;;;15.70;99.90;;;;;;5003820;28;20036;-70
2023/07/05 01:46:22;;;;;;;3.63;1.40;;;15.70;99.90;;;;;;5004476;28;20169;-72
2023/07/05 01:48:53;;;;;;;3.70;1.25;;;15.70;99.90;;;;;;5000678;28;20136;-71
2023/07/05 01:52:00;;;;;;;4.25;1.42;;;15.60;99.90;;;;;;5002529;28;20451;-72
2023/07/05 01:54:39;;;;;;;6.68;1.52;;;15.60;99.90;;;;;;5000052;28;20494;-71
2023/07/05 01:57:26;;;;;;;4.68;1.90;;;15.60;99.90;;;;;;5004110;28;20046;-72
2023/07/05 01:59:55;;;;;;;2.88;1.17;;;15.60;99.90;;;;;;5000561;28;20049;-71
2023/07/05 02:02:26;;;;;;;2.88;1.38;;;15.60;99.90;;;;;;5021744;28;20438;-72
2023/07/05 02:04:52;;;;;;;1.90;1.08;;;15.50;99.90;;;;;;4998918;28;20087;-71
2023/07/05 02:07:27;;;;;;;4.60;1.25;;;15.50;99.90;;;;;;5024874;28;20045;-72
2023/07/05 02:09:54;;;;;;;2.25;0.80;;;15.50;99.90;;;;;;5021792;28;20119;-73
2023/07/05 02:12:19;;;;;;;2.35;1.33;;;15.50;99.90;;;;;;5024475;28;20087;-73
2023/07/05 02:14:45;;;;;;;3.78;0.85;;;15.50;99.90;;;;;;5011585;28;20037;-74
2023/07/05 02:17:11;;;;;;;4.10;0.68;;;15.40;99.90;;;;;;5015241;28;20052;-72
2023/07/05 02:19:37;;;;;;;1.55;0.80;;;15.30;99.90;;;;;;5001309;28;20042;-72
2023/07/05 02:22:03;;;;;;;3.45;0.70;;;15.30;99.90;;;;;;5010568;28;20149;-74
2023/07/05 02:24:28;;;;;;;4.35;0.60;;;15.20;99.90;;;;;;5003745;28;20029;-72
2023/07/05 02:26:57;;;;;;;2.58;0.50;;;15.10;99.90;;;;;;5003425;28;20075;-73
2023/07/05 02:29:23;;;;;;;3.83;0.65;;;15.10;99.90;;;;;;5011335;28;20051;-74
2023/07/05 02:31:49;;;;;;;5.95;1.05;;;15.10;99.90;;;;;;5004433;28;20033;-72
2023/07/05 02:34:14;;;;;;;3.53;0.93;;;15.00;99.90;;;;;;5019423;28;20037;-73
2023/07/05 02:36:40;;;;;;;5.35;1.08;;;15.00;99.90;;;;;;5023582;28;20041;-72
2023/07/05 02:39:06;;;;;;;5.57;1.08;;;15.00;99.90;;;;;;4995180;28;20118;-72
2023/07/05 02:41:31;;;;;;;4.90;1.13;;;14.90;99.90;;;;;;5021841;28;20057;-73
2023/07/05 02:43:57;;;;;;;3.47;1.20;;;14.90;99.90;;;;;;5006054;28;20042;-73
2023/07/05 02:46:25;;;;;;;4.85;1.42;;;14.80;99.90;;;;;;5003252;28;20109;-72
2023/07/05 02:48:52;;;;;;;9.13;2.00;;;14.80;99.90;;;;;;4991285;28;20188;-72
2023/07/05 02:51:18;;;;;;;2.05;1.25;;;14.80;99.90;;;;;;4991363;28;20141;-72
2023/07/05 02:53:43;;;;;;;7.00;1.92;;;14.70;99.90;;;;;;4991913;28;20121;-73
2023/07/05 02:56:09;;;;;;;8.90;2.20;;;14.60;99.90;;;;;;4990904;28;20034;-73
2023/07/05 02:58:34;;;;;;;7.32;1.55;;;14.60;99.90;;;;;;5019114;28;20037;-73
2023/07/05 03:01:00;;;;;;;3.67;1.40;;;14.60;99.90;;;;;;5006077;28;20041;-73
2023/07/05 03:03:26;;;;;;;3.95;1.20;;;14.60;99.90;;;;;;5024774;28;20036;-73
2023/07/05 03:05:58;;;;;;;5.53;1.50;;;14.60;99.90;;;;;;4998529;28;20157;-73
2023/07/05 03:08:28;;;;;;;3.28;1.20;;;14.60;99.90;;;;;;5016879;28;20397;-73
2023/07/05 03:11:00;;;;;;;5.60;1.60;;;14.50;99.90;;;;;;4991128;28;20026;-74
2023/07/05 03:13:29;;;;;;;1.92;0.98;;;14.40;99.90;;;;;;4991448;28;20103;-73
2023/07/05 03:15:55;;;;;;;6.15;1.30;;;14.50;99.90;;;;;;5003737;28;20038;-74
2023/07/05 03:18:20;;;;;;;4.22;1.40;;;14.40;99.90;;;;;;4991234;28;20111;-72
2023/07/05 03:20:47;;;;;;;4.05;1.33;;;14.40;99.90;;;;;;5000936;28;20405;-73
2023/07/05 03:23:16;;;;;;;5.03;1.27;;;14.30;99.90;;;;;;5003883;28;20061;-73
2023/07/05 03:25:59;;;;;;;6.00;1.50;;;14.40;99.90;;;;;;4999491;28;20041;-74
2023/07/05 03:28:27;;;;;;;4.60;1.58;;;14.30;99.90;;;;;;4990672;28;20025;-74
2023/07/05 03:31:01;;;;;;;3.63;1.50;;;14.30;99.90;;;;;;5002961;28;20037;-73
2023/07/05 03:33:27;;;;;;;4.72;1.30;;;14.40;99.90;;;;;;4999171;28;20048;-73
2023/07/05 03:35:57;;;;;;;3.63;1.67;;;14.40;99.90;;;;;;5002445;28;20076;-73
2023/07/05 03:38:25;;;;;;;5.75;2.15;;;14.30;99.90;;;;;;5008422;28;20030;-73
2023/07/05 03:41:05;;;;;;;2.95;1.52;;;14.30;99.90;;;;;;4990492;28;20406;-74
2023/07/05 03:43:35;;;;;;;7.75;1.85;;;14.30;99.90;;;;;;5001741;28;20033;-73
2023/07/05 03:46:02;;;;;;;6.80;1.92;;;14.30;99.90;;;;;;5000796;28;20709;-73
2023/07/05 03:48:30;;;;;;;5.60;1.73;;;14.30;99.90;;;;;;5012323;28;20034;-74
2023/07/05 03:50:57;;;;;;;4.40;1.98;;;14.20;99.90;;;;;;5015801;28;20037;-74
2023/07/05 03:53:23;;;;;;;5.85;1.92;;;14.20;99.90;;;;;;5008724;28;20117;-74
2023/07/05 03:55:48;;;;;;;4.68;1.95;;;14.20;99.90;;;;;;5002566;28;20104;-73
2023/07/05 03:58:14;;;;;;;4.32;1.80;;;14.10;99.90;;;;;;5002308;28;20054;-73
2023/07/05 04:00:39;;;;;;;13.35;2.55;;;14.10;99.90;;;;;;5009852;28;20613;-74
2023/07/05 04:03:05;;;;;;;5.97;2.03;;;14.10;99.90;;;;;;5027286;28;20092;-74
2023/07/05 04:05:31;;;;;;;5.15;1.25;;;14.20;99.90;;;;;;5010937;28;20029;-73
2023/07/05 04:07:57;;;;;;;3.90;1.40;;;14.10;99.90;;;;;;5026554;28;20441;-73
2023/07/05 04:10:22;;;;;;;4.07;1.60;;;14.10;99.90;;;;;;5008639;28;20017;-73
2023/07/05 04:12:49;;;;;;;4.97;1.52;;;14.10;99.90;;;;;;4990386;28;20489;-74
2023/07/05 04:15:15;;;;;;;6.13;2.03;;;14.10;99.90;;;;;;5009803;28;20508;-73
2023/07/05 04:17:40;;;;;;;7.60;1.65;;;14.10;99.90;;;;;;5010495;28;20052;-74
2023/07/05 04:20:06;;;;;;;4.53;2.00;;;14.20;99.90;;;;;;5009501;28;20056;-74
2023/07/05 04:22:35;;;;;;;6.32;1.55;;;14.30;99.90;;;;;;5006455;28;20064;-73
2023/07/05 04:25:01;;;;;;;5.28;1.60;;;14.30;99.90;;;;;;4991628;28;20077;-72
2023/07/05 04:27:26;;;;;;;5.22;1.63;;;14.40;99.90;;;;;;5013235;28;20096;-73
2023/07/05 04:29:52;;;;;;;7.22;1.75;;;14.30;99.90;;;;;;5009533;28;20037;-75
2023/07/05 04:32:17;;;;;;;3.22;1.10;;;14.30;99.90;;;;;;5009727;28;20389;-73
2023/07/05 04:34:43;;;;;;;4.45;1.80;;;14.40;99.90;;;;;;5009839;28;20099;-75
2023/07/05 04:37:09;;;;;;;4.43;1.80;;;14.30;99.90;;;;;;5001622;28;20076;-73
2023/07/05 04:39:35;;;;;;;4.90;1.60;;;14.20;99.90;;;;;;5009563;28;20056;-73
2023/07/05 04:42:01;;;;;;;4.43;1.75;;;14.10;99.90;;;;;;5005281;28;20171;-73
2023/07/05 04:44:26;;;;;;;6.40;2.00;;;14.00;99.90;;;;;;4994603;28;20120;-73
2023/07/05 04:46:52;;;;;;;3.83;1.98;;;13.80;99.90;;;;;;5016122;28;20046;-73
2023/07/05 04:49:17;;;;;;;9.10;2.58;;;13.70;99.90;;;;;;5019298;28;20033;-72
2023/07/05 04:51:43;;;;;;;5.05;2.22;;;13.60;99.90;;;;;;5016846;28;20042;-73
2023/07/05 04:54:08;;;;;;;8.68;2.17;;;13.60;99.90;;;;;;5003831;28;20128;-75
2023/07/05 04:56:34;;;;;;;3.45;1.42;;;13.50;99.90;;;;;;5001785;28;20113;-72
2023/07/05 04:59:00;;;;;;;3.50;1.60;;;13.50;99.90;;;;;;5012933;28;20041;-73
2023/07/05 05:01:25;;;;;;;5.18;1.60;;;13.40;99.90;;;;;;5020909;28;20129;-73
2023/07/05 05:03:51;;;;;;;3.20;1.55;;;13.40;99.90;;;;;;5018457;28;20171;-73
2023/07/05 05:06:17;;;;;;;3.78;1.55;;;13.40;99.90;;;;;;5015478;28;20026;-72
2023/07/05 05:08:43;;;;;;;3.70;1.45;;;13.30;99.90;;;;;;5001440;28;20030;-72
2023/07/05 05:11:09;;;;;;;6.03;2.00;;;13.30;99.90;;;;;;4997585;28;20084;-73
2023/07/05 05:13:36;;;;;;;5.95;2.00;;;13.30;99.90;;;;;;5001997;28;20168;-72
2023/07/05 05:16:02;;;;;;;3.05;1.45;;;13.40;99.90;;;;;;5016413;28;20030;-73
2023/07/05 05:18:30;;;;;;;4.68;1.50;;;13.40;99.90;;;;;;5000061;28;20052;-73
2023/07/05 05:20:56;;;;;;;3.05;1.40;;;13.60;99.90;;;;;;5019631;28;20136;-73
2023/07/05 05:23:21;;;;;;;3.17;1.23;;;13.70;99.90;;;;;;5018138;28;20567;-72
2023/07/05 05:25:48;;;;;;;3.30;1.23;;;13.80;99.90;;;;;;4993534;28;20034;-73
2023/07/05 05:28:15;;;;;;;5.20;1.20;;;13.80;99.90;;;;;;5005323;28;20026;-72
2023/07/05 05:30:43;;;;;;;4.15;1.02;;;13.90;99.90;;;;;;5001830;28;20089;-72
2023/07/05 05:33:09;;;;;;;3.13;0.98;;;14.00;99.90;;;;;;4999666;28;20120;-74
2023/07/05 05:35:35;;;;;;;3.92;0.82;;;14.00;99.90;;;;;;5005185;28;20037;-73
2023/07/05 05:38:01;;;;;;;2.70;0.88;;;14.00;99.90;;;;;;4998665;28;20679;-74
2023/07/05 05:40:26;;;;;;;9.07;1.27;;;13.90;99.90;;;;;;5017528;28;20041;-72
2023/07/05 05:42:52;;;;;;;3.33;0.80;;;13.70;99.90;;;;;;5004953;28;20520;-72
2023/07/05 05:45:18;;;;;;;2.05;0.40;;;13.60;99.90;;;;;;5005042;28;20034;-72
2023/07/05 05:47:44;;;;;;;5.45;1.00;;;13.50;99.90;;;;;;5001197;28;20089;-72
2023/07/05 05:50:09;;;;;;;20.80;1.88;;;13.40;99.90;;;;;;4999876;28;20040;-72
2023/07/05 05:52:35;;;;;;;4.57;0.90;;;13.40;99.90;;;;;;5019272;28;20033;-71
2023/07/05 05:55:02;;;;;;;5.20;0.73;;;13.30;99.90;;;;;;5011811;28;20038;-72
2023/07/05 05:57:28;;;;;;;2.28;0.60;;;13.30;99.90;;;;;;5007304;28;20026;-72
2023/07/05 05:59:53;;;;;;;7.32;0.70;;;13.30;99.90;;;;;;5002684;28;20034;-72
2023/07/05 06:02:19;;;;;;;4.85;0.80;;;13.10;99.90;;;;;;5007648;28;20042;-71
2023/07/05 06:04:44;;;;;;;3.17;0.60;;;13.00;99.90;;;;;;5004192;28;20037;-72
2023/07/05 06:07:10;;;;;;;5.78;0.85;;;12.90;99.90;;;;;;5016731;28;20048;-72
2023/07/05 06:09:48;;;;;;;5.13;1.17;;;12.70;99.90;;;;;;5004510;28;20374;-72
2023/07/05 06:12:14;;;;;;;8.23;0.57;;;12.70;99.90;;;;;;5017757;28;20406;-71
2023/07/05 06:14:40;;;;;;;10.38;1.13;;;12.50;99.90;;;;;;5000126;28;20044;-72
2023/07/05 06:17:06;;;;;;;5.93;0.73;;;12.40;99.90;;;;;;5020532;28;20038;-72
2023/07/05 06:19:32;;;;;;;5.25;1.52;;;12.40;99.90;;;;;;5001860;28;20143;-71
2023/07/05 06:21:59;;;;;;;5.75;1.35;;;12.30;99.90;;;;;;5021198;28;20128;-72
2023/07/05 06:24:25;;;;;;;7.25;0.60;;;12.30;99.90;;;;;;5007522;28;20104;-72
2023/07/05 06:26:50;;;;;;;5.05;0.63;;;12.20;99.90;;;;;;5002297;28;20497;-71
2023/07/05 06:29:16;;;;;;;9.63;1.20;;;12.20;99.90;;;;;;5021513;28;20040;-73
2023/07/05 06:31:41;;;;;;;3.38;0.98;;;12.20;99.90;;;;;;5004146;28;20040;-71
2023/07/05 06:34:07;;;;;;;3.95;0.45;;;12.20;99.90;;;;;;5017351;28;20117;-71
2023/07/05 06:36:32;;;;;;;6.45;0.40;;;12.10;99.90;;;;;;5002746;28;20041;-71
2023/07/05 06:38:58;;;;;;;5.03;0.65;;;12.10;99.90;;;;;;5000789;28;20033;-72
2023/07/05 06:41:24;;;;;;;6.63;1.65;;;12.10;99.90;;;;;;5001660;28;20124;-72
2023/07/05 06:43:49;;;;;;;9.20;0.70;;;12.00;99.90;;;;;;5020747;28;20045;-70
2023/07/05 06:46:15;;;;;;;3.08;0.93;;;11.90;99.90;;;;;;5002600;28;20049;-71
2023/07/05 06:48:40;;;;;;;7.53;0.90;;;11.90;99.90;;;;;;5003331;28;20040;-71
2023/07/05 06:51:06;;;;;;;5.75;0.80;;;11.90;99.90;;;;;;5016866;28;20034;-72
2023/07/05 06:53:31;;;;;;;3.92;0.63;;;11.90;99.90;;;;;;5019773;28;20549;-72
2023/07/05 06:55:57;;;;;;;10.77;1.20;;;11.90;99.90;;;;;;5014781;28;20449;-72
2023/07/05 06:58:23;;;;;;;4.75;0.70;;;11.90;99.90;;;;;;5019269;28;20053;-72
2023/07/05 07:00:50;;;;;;;8.82;1.50;;;11.90;99.90;;;;;;4999090;28;20038;-73
2023/07/05 07:03:16;;;;;;;7.93;1.25;;;11.90;99.90;;;;;;5019699;28;20117;-72
2023/07/05 07:05:53;;;;;;;7.38;1.23;;;12.00;99.90;;;;;;5020845;28;20097;-72
2023/07/05 07:08:20;;;;;;;5.85;0.88;;;12.00;99.90;;;;;;5002709;28;20029;-71
2023/07/05 07:10:46;;;;;;;5.63;1.38;;;12.10;99.90;;;;;;5017998;28;20125;-72
2023/07/05 07:13:13;;;;;;;6.45;1.40;;;12.10;99.90;;;;;;5001782;28;20029;-72
2023/07/05 07:15:38;;;;;;;13.10;1.77;;;12.10;99.90;;;;;;5000151;28;20034;-73
2023/07/05 07:18:04;;;;;;;8.32;1.60;;;12.20;99.90;;;;;;5010288;28;20026;-73
2023/07/05 07:20:30;;;;;;;8.35;1.40;;;12.30;99.90;;;;;;5002348;28;20045;-73
2023/07/05 07:22:55;;;;;;;6.90;1.70;;;12.20;99.90;;;;;;5016336;28;20023;-74
2023/07/05 07:25:21;;;;;;;9.52;1.40;;;12.30;99.90;;;;;;5015058;28;20518;-71
2023/07/05 07:27:46;;;;;;;13.02;1.67;;;12.30;99.90;;;;;;5000272;28;20413;-72
2023/07/05 07:30:13;;;;;;;12.48;2.25;;;12.30;99.90;;;;;;4997184;28;20053;-72
2023/07/05 07:32:39;;;;;;;7.60;1.50;;;12.30;99.90;;;;;;5001424;28;20156;-72
2023/07/05 07:35:05;;;;;;;12.50;1.80;;;12.30;99.90;;;;;;5036992;28;20065;-72
2023/07/05 07:37:33;;;;;;;4.68;1.67;;;12.40;99.90;;;;;;5020017;28;20634;-72
2023/07/05 07:39:59;;;;;;;8.98;1.45;;;12.40;99.90;;;;;;5014740;28;20549;-72
2023/07/05 07:42:25;;;;;;;8.15;1.63;;;12.50;99.90;;;;;;5013053;28;20033;-72
2023/07/05 07:44:53;;;;;;;7.40;2.30;;;12.50;99.90;;;;;;4999004;28;20038;-72
2023/07/05 07:47:19;;;;;;;9.70;1.40;;;12.50;99.90;;;;;;4999243;28;20444;-73
2023/07/05 07:49:44;;;;;;;7.72;1.92;;;12.60;99.90;;;;;;5002072;28;20033;-71
2023/07/05 07:52:11;;;;;;;7.47;1.52;;;12.60;99.90;;;;;;4999544;28;20390;-73
2023/07/05 07:54:38;;;;;;;12.32;1.73;;;12.70;99.90;;;;;;4997549;28;20041;-71
2023/07/05 07:57:05;;;;;;;5.03;1.23;;;12.70;99.90;;;;;;5000240;28;20495;-71
2023/07/05 07:59:31;;;;;;;4.55;1.20;;;12.70;99.90;;;;;;5004722;28;20128;-71
2023/07/05 08:01:57;;;;;;;4.47;1.33;;;12.70;99.90;;;;;;5024183;28;20037;-72
2023/07/05 08:04:22;;;;;;;7.00;1.13;;;12.70;99.90;;;;;;5026908;28;20052;-71
2023/07/05 08:06:50;;;;;;;5.75;1.10;;;12.70;99.90;;;;;;5028454;28;20611;-72
2023/07/05 08:09:21;;;;;;;9.52;1.33;;;12.60;99.90;;;;;;5026239;28;20094;-71
2023/07/05 08:11:46;;;;;;;6.07;1.35;;;12.70;99.90;;;;;;5014575;28;20026;-71
2023/07/05 08:14:18;;;;;;;12.23;1.52;;;12.60;99.90;;;;;;5025217;28;20033;-71
2023/07/05 08:16:45;;;;;;;3.70;1.00;;;12.60;99.90;;;;;;5020030;28;20187;-72
2023/07/05 08:19:10;;;;;;;10.23;1.00;;;12.70;99.90;;;;;;5025535;28;20482;-72
2023/07/05 08:21:36;;;;;;;6.28;1.40;;;12.60;99.90;;;;;;5026921;28;20033;-72
2023/07/05 08:24:03;;;;;;;7.13;0.90;;;12.60;99.90;;;;;;5019625;28;20164;-72
2023/07/05 08:26:28;;;;;;;5.20;1.15;;;12.60;99.90;;;;;;5012257;28;20091;-73
2023/07/05 08:28:55;;;;;;;5.47;1.20;;;12.60;99.90;;;;;;5015193;28;20049;-72
2023/07/05 08:31:21;;;;;;;7.97;1.38;;;12.60;99.90;;;;;;5024750;28;20038;-72
2023/07/05 08:33:47;;;;;;;6.43;1.08;;;12.60;99.90;;;;;;5015629;28;20068;-72
2023/07/05 08:36:15;;;;;;;9.88;1.50;;;12.60;99.90;;;;;;5026274;28;20084;-71
2023/07/05 08:38:49;;;;;;;6.53;1.48;;;12.60;99.90;;;;;;5014375;28;20434;-72
2023/07/05 08:41:23;;;;;;;12.02;1.95;;;12.50;99.90;;;;;;5009880;28;20041;-71
2023/07/05 08:44:09;;;;;;;6.43;1.52;;;12.60;99.90;;;;;;4999839;28;20529;-76
2023/07/05 08:46:37;;;;;;;7.65;1.50;;;12.70;99.90;;;;;;4998648;28;20475;-72
2023/07/05 08:49:10;;;;;;;7.97;1.40;;;12.80;99.90;;;;;;4997356;28;20093;-72
2023/07/05 08:51:36;;;;;;;12.32;1.80;;;12.80;99.90;;;;;;5001881;28;20048;-73
2023/07/05 08:54:04;;;;;;;10.25;1.42;;;12.80;99.90;;;;;;5011363;28;20040;-72
2023/07/05 08:56:39;;;;;;;7.30;1.70;;;12.80;99.90;;;;;;5019365;28;20517;-72
2023/07/05 08:59:20;;;;;;;22.52;3.97;;;12.80;99.90;;;;;;5021940;28;20425;-72
2023/07/05 09:01:56;;;;;;;9.63;1.50;;;12.80;99.90;;;;;;4999934;28;20143;-72
2023/07/05 09:04:32;;;;;;;6.53;1.55;;;12.80;99.90;;;;;;4998707;28;20441;-73
2023/07/05 09:07:17;;;;;;;5.65;1.77;;;12.80;99.90;;;;;;4999958;28;20029;-73
2023/07/05 09:10:18;;;;;;;10.23;1.55;;;12.80;99.90;;;;;;5015894;28;20068;-73
2023/07/05 09:13:02;;;;;;;10.50;1.60;;;12.70;99.90;;;;;;5018923;28;20580;-73
2023/07/05 09:15:38;;;;;;;13.88;2.13;;;12.70;99.90;;;;;;5018931;28;20398;-72
2023/07/05 09:18:22;;;;;;;5.55;1.35;;;12.70;99.90;;;;;;4997987;28;20096;-72
2023/07/05 09:20:53;;;;;;;19.80;3.92;;;12.80;99.90;;;;;;5002644;28;20046;-74
2023/07/05 09:23:31;;;;;;;13.98;1.70;;;12.70;99.90;;;;;;5020135;28;20107;-71
2023/07/05 09:26:04;;;;;;;20.25;3.90;;;12.60;99.90;;;;;;5022694;28;20044;-75
2023/07/05 09:28:53;;;;;;;12.52;2.40;;;12.60;99.90;;;;;;5005018;28;20026;-72
2023/07/05 09:31:22;;;;;;;10.82;2.05;;;12.60;99.90;;;;;;5019819;28;20105;-72
2023/07/05 09:33:58;;;;;;;11.18;2.88;;;12.60;99.90;;;;;;5004650;28;20050;-71
2023/07/05 09:36:26;;;;;;;7.63;1.88;;;12.50;99.90;;;;;;5018528;28;20041;-72
2023/07/05 09:39:06;;;;;;;10.30;1.83;;;12.50;99.90;;;;;;5003305;28;20056;-73
2023/07/05 09:41:46;;;;;;;7.43;1.60;;;12.50;99.90;;;;;;5005615;28;20065;-72
2023/07/05 09:44:15;;;;;;;6.28;1.02;;;12.40;99.90;;;;;;5008012;28;20496;-71
2023/07/05 09:46:41;;;;;;;2.75;1.60;;;12.30;99.90;;;;;;5004880;28;20041;-72
2023/07/05 09:49:15;;;;;;;7.65;1.48;;;12.30;99.90;;;;;;5000078;28;20033;-70
2023/07/05 09:51:44;;;;;;;10.35;1.38;;;12.30;99.90;;;;;;5021940;28;20061;-72
2023/07/05 09:54:32;;;;;;;7.68;2.17;;;12.20;99.90;;;;;;5003357;28;20035;-72
2023/07/05 09:57:04;;;;;;;10.20;1.88;;;12.30;99.90;;;;;;4999858;28;20505;-72
2023/07/05 09:59:30;;;;;;;5.15;2.15;;;12.40;99.90;;;;;;5004512;28;20036;-71
2023/07/05 10:02:04;;;;;;;18.80;2.10;;;12.40;99.90;;;;;;5017425;28;20046;-72
2023/07/05 10:04:29;;;;;;;11.95;1.80;;;12.40;99.90;;;;;;5017035;28;20383;-71
2023/07/05 10:06:56;;;;;;;8.05;1.75;;;12.40;99.90;;;;;;4998751;28;20033;-73
2023/07/05 10:09:24;;;;;;;10.15;2.55;;;12.50;99.90;;;;;;5021542;28;20745;-72
2023/07/05 10:11:53;;;;;;;19.35;2.65;;;12.80;99.90;;;;;;5020533;28;20033;-72
2023/07/05 10:14:21;;;;;;;8.60;2.15;;;12.90;99.90;;;;;;5017080;28;20037;-72
2023/07/05 10:16:51;;;;;;;13.18;1.80;;;13.20;99.90;;;;;;5001947;28;20180;-72
2023/07/05 10:19:28;;;;;;;14.82;2.08;;;13.40;99.90;;;;;;5015304;28;20129;-72
2023/07/05 10:21:58;;;;;;;7.82;2.20;;;13.60;99.90;;;;;;5003483;28;20082;-72
2023/07/05 10:24:26;;;;;;;9.93;2.13;;;13.80;99.90;;;;;;5018792;28;20072;-72
2023/07/05 10:27:01;;;;;;;10.52;2.30;;;14.00;99.90;;;;;;5004315;28;20038;-72
2023/07/05 10:29:28;;;;;;;13.35;2.40;;;14.30;99.90;;;;;;5000413;28;20057;-72
2023/07/05 10:31:58;;;;;;;7.93;2.13;;;14.60;99.90;;;;;;5012158;28;20041;-72
2023/07/05 10:34:24;;;;;;;8.88;2.40;;;14.90;99.90;;;;;;5017476;28;20034;-73
2023/07/05 10:36:51;;;;;;;9.20;1.83;;;15.10;99.90;;;;;;5012964;28;20076;-72
2023/07/05 10:39:23;;;;;;;6.82;1.50;;;15.20;99.90;;;;;;5004219;28;20132;-72
2023/07/05 10:41:54;;;;;;;8.63;2.20;;;15.00;99.90;;;;;;5020853;28;20057;-73
2023/07/05 10:44:24;;;;;;;11.75;1.77;;;14.80;99.90;;;;;;5003057;28;20034;-72
2023/07/05 10:46:50;;;;;;;8.80;2.20;;;14.80;99.90;;;;;;5008455;28;20394;-73
2023/07/05 10:49:18;;;;;;;8.98;1.98;;;14.70;99.90;;;;;;5013797;28;20022;-72
2023/07/05 10:51:49;;;;;;;10.20;1.70;;;14.70;99.90;;;;;;5010214;28;20045;-71
2023/07/05 10:54:32;;;;;;;10.05;2.13;;;14.60;99.90;;;;;;5021120;28;20063;-73
2023/07/05 10:57:03;;;;;;;12.75;1.90;;;14.50;99.90;;;;;;5040708;28;20025;-71
2023/07/05 10:59:45;;;;;;;8.85;1.95;;;14.40;99.90;;;;;;5021550;28;20034;-70
2023/07/05 11:02:26;;;;;;;9.10;1.92;;;14.30;99.90;;;;;;5036196;28;20047;-71
2023/07/05 11:04:53;;;;;;;6.47;1.40;;;14.30;99.90;;;;;;5024089;28;20081;-73
2023/07/05 11:07:21;;;;;;;14.68;3.38;;;14.30;99.90;;;;;;5036180;28;20033;-73
2023/07/05 11:09:47;;;;;;;13.52;2.05;;;14.20;99.90;;;;;;5036050;28;20085;-71
2023/07/05 11:12:21;;;;;;;8.13;1.95;;;14.20;99.90;;;;;;5015999;28;20034;-70
2023/07/05 11:14:48;;;;;;;6.97;2.38;;;14.20;99.90;;;;;;5039449;28;20040;-71
2023/07/05 11:17:34;;;;;;;8.68;2.03;;;14.10;99.90;;;;;;5019684;28;20020;-73
2023/07/05 11:20:00;;;;;;;12.88;2.28;;;14.10;99.90;;;;;;5037123;28;20064;-72
2023/07/05 11:22:44;;;;;;;13.48;2.00;;;14.10;99.90;;;;;;5020882;28;20045;-71
2023/07/05 11:25:17;;;;;;;9.27;2.47;;;14.10;99.90;;;;;;5037243;28;20144;-71
2023/07/05 11:27:56;;;;;;;18.60;3.22;;;14.10;99.90;;;;;;5018823;28;20532;-72
2023/07/05 11:30:39;;;;;;;10.90;1.90;;;14.10;99.90;;;;;;5019672;28;20402;-73
2023/07/05 11:33:05;;;;;;;3.53;1.00;;;14.00;99.90;;;;;;5015728;28;20030;-72
2023/07/05 11:35:52;;;;;;;6.63;1.38;;;14.00;99.90;;;;;;5014993;28;20052;-72
2023/07/05 11:38:36;;;;;;;12.50;1.65;;;13.90;99.90;;;;;;5014503;28;20036;-72
2023/07/05 11:41:04;;;;;;;5.50;1.15;;;13.90;99.90;;;;;;5014873;28;20046;-72
2023/07/05 11:43:37;;;;;;;12.25;1.52;;;13.90;99.90;;;;;;5019571;28;20025;-73
2023/07/05 11:46:04;;;;;;;6.32;1.08;;;13.80;99.90;;;;;;4999927;28;20040;-72
2023/07/05 11:48:43;;;;;;;10.10;1.23;;;13.70;99.90;;;;;;4998491;28;20025;-72
2023/07/05 11:51:26;;;;;;;5.55;1.00;;;13.70;99.90;;;;;;5016398;28;21770;-73
2023/07/05 11:53:53;;;;;;;7.72;1.40;;;13.70;99.90;;;;;;5001336;28;20029;-73
2023/07/05 11:56:20;;;;;;;5.43;1.52;;;13.90;99.90;;;;;;5001766;28;20368;-72
2023/07/05 11:58:47;;;;;;;5.72;1.45;;;13.90;99.90;;;;;;5000838;28;20448;-73
2023/07/05 12:01:26;;;;;;;10.43;1.85;;;14.00;99.90;;;;;;4999508;28;20044;-73
2023/07/05 12:03:58;;;;;;;10.60;1.63;;;14.10;99.90;;;;;;5025521;28;20045;-72
2023/07/05 12:06:32;;;;;;;10.70;1.35;;;14.20;99.90;;;;;;5024964;28;20030;-73
2023/07/05 12:09:03;;;;;;;8.02;1.55;;;14.30;99.90;;;;;;5022701;28;20191;-72
2023/07/05 12:11:39;;;;;;;5.65;0.80;;;14.60;99.90;;;;;;5024337;28;20469;-72
2023/07/05 12:14:16;;;;;;;7.45;1.27;;;14.80;99.90;;;;;;5000321;28;20184;-72
2023/07/05 12:16:43;;;;;;;5.97;0.75;;;14.80;99.90;;;;;;5001805;28;20185;-73
2023/07/05 12:19:21;;;;;;;6.07;0.73;;;14.80;99.90;;;;;;4997344;28;22250;-72
2023/07/05 12:21:55;;;;;;;5.88;0.70;;;14.80;99.90;;;;;;4997222;28;20139;-72
2023/07/05 12:24:20;;;;;;;4.68;1.02;;;14.90;99.90;;;;;;4999634;28;20127;-72
2023/07/05 12:26:46;;;;;;;4.82;1.50;;;15.00;99.90;;;;;;5001248;28;20628;-72
2023/07/05 12:29:20;;;;;;;7.10;1.10;;;15.20;99.90;;;;;;4997399;28;20037;-73
2023/07/05 12:31:45;;;;;;;9.82;1.15;;;15.30;99.90;;;;;;5023711;28;20060;-73
2023/07/05 12:34:18;;;;;;;3.05;0.57;;;15.40;99.90;;;;;;4994627;28;20034;-73
2023/07/05 12:36:44;;;;;;;5.07;1.67;;;15.50;99.90;;;;;;5004510;28;20048;-72
2023/07/05 12:39:14;;;;;;;3.63;0.70;;;15.50;99.90;;;;;;4993736;28;20030;-72
2023/07/05 12:41:40;;;;;;;4.75;0.82;;;15.50;99.90;;;;;;4995027;28;20138;-73
2023/07/05 12:44:14;;;;;;;10.55;1.30;;;15.30;99.90;;;;;;5000025;28;20077;-73
2023/07/05 12:46:41;;;;;;;5.70;0.85;;;15.20;99.90;;;;;;5010731;28;20395;-73
2023/07/05 12:49:12;;;;;;;6.00;1.00;;;15.10;99.90;;;;;;5010726;28;20109;-73
2023/07/05 12:51:50;;;;;;;6.45;1.60;;;15.00;99.90;;;;;;5018016;28;20107;-72
2023/07/05 12:54:16;;;;;;;3.83;1.20;;;15.20;99.90;;;;;;5021494;28;20109;-73
2023/07/05 12:56:45;;;;;;;4.18;0.70;;;15.30;99.90;;;;;;5022101;28;20128;-72